sensor_id;sensor_type;location;lat;lon;timestamp;P1;durP1;ratioP1;P2;durP2;ratioP2
38787;SDS011;24536;45.488;12.238;2022-09-03T00:01:49;1.77;;;1.63;;
38787;SDS011;24536;45.488;12.238;2022-09-03T00:14:09;2.08;;;1.85;;
38787;SDS011;24536;45.488;12.238;2022-09-03T00:16:21;2.03;;;1.40;;
38787;SDS011;24536;45.488;12.238;2022-09-03T00:19:09;3.13;;;1.95;;
38787;SDS011;24536;45.488;12.238;2022-09-03T00:21:39;3.67;;;1.40;;
38787;SDS011;24536;45.488;12.238;2022-09-03T00:24:12;2.53;;;1.40;;
38787;SDS011;24536;45.488;12.238;2022-09-03T00:26:42;1.92;;;1.42;;
38787;SDS011;24536;45.488;12.238;2022-09-03T00:31:40;3.08;;;2.13;;
38787;SDS011;24536;45.488;12.238;2022-09-03T00:34:20;2.10;;;1.30;;
38787;SDS011;24536;45.488;12.238;2022-09-03T00:36:48;2.05;;;1.52;;
38787;SDS011;24536;45.488;12.238;2022-09-03T00:39:17;4.00;;;1.42;;
38787;SDS011;24536;45.488;12.238;2022-09-03T00:52:46;2.55;;;1.38;;
38787;SDS011;24536;45.488;12.238;2022-09-03T01:01:15;3.03;;;1.42;;
38787;SDS011;24536;45.488;12.238;2022-09-03T01:06:32;4.20;;;1.73;;
38787;SDS011;24536;45.488;12.238;2022-09-03T01:11:58;3.42;;;1.60;;
38787;SDS011;24536;45.488;12.238;2022-09-03T01:28:08;3.95;;;2.08;;
38787;SDS011;24536;45.488;12.238;2022-09-03T01:30:56;4.57;;;2.08;;
38787;SDS011;24536;45.488;12.238;2022-09-03T01:34:09;4.90;;;2.30;;
38787;SDS011;24536;45.488;12.238;2022-09-03T01:44:49;1.83;;;1.30;;
38787;SDS011;24536;45.488;12.238;2022-09-03T01:55:35;3.63;;;1.45;;
38787;SDS011;24536;45.488;12.238;2022-09-03T01:58:28;2.20;;;1.80;;
38787;SDS011;24536;45.488;12.238;2022-09-03T02:01:00;2.13;;;1.60;;
38787;SDS011;24536;45.488;12.238;2022-09-03T02:03:35;4.18;;;1.58;;
38787;SDS011;24536;45.488;12.238;2022-09-03T02:06:05;2.47;;;1.70;;
38787;SDS011;24536;45.488;12.238;2022-09-03T02:08:32;3.63;;;1.63;;
38787;SDS011;24536;45.488;12.238;2022-09-03T02:10:58;4.35;;;1.90;;
38787;SDS011;24536;45.488;12.238;2022-09-03T02:15:56;1.73;;;1.40;;
38787;SDS011;24536;45.488;12.238;2022-09-03T02:18:30;2.53;;;1.38;;
38787;SDS011;24536;45.488;12.238;2022-09-03T02:21:01;2.83;;;1.35;;
38787;SDS011;24536;45.488;12.238;2022-09-03T02:23:26;3.53;;;1.60;;
38787;SDS011;24536;45.488;12.238;2022-09-03T02:25:56;3.10;;;1.90;;
38787;SDS011;24536;45.488;12.238;2022-09-03T02:28:25;3.50;;;1.88;;
38787;SDS011;24536;45.488;12.238;2022-09-03T02:30:53;1.70;;;1.20;;
38787;SDS011;24536;45.488;12.238;2022-09-03T02:33:19;2.50;;;1.55;;
38787;SDS011;24536;45.488;12.238;2022-09-03T02:35:45;2.05;;;1.27;;
38787;SDS011;24536;45.488;12.238;2022-09-03T02:38:16;1.63;;;1.27;;
38787;SDS011;24536;45.488;12.238;2022-09-03T02:40:49;1.33;;;1.10;;
38787;SDS011;24536;45.488;12.238;2022-09-03T02:43:19;3.00;;;1.40;;
38787;SDS011;24536;45.488;12.238;2022-09-03T02:46:06;2.28;;;1.52;;
38787;SDS011;24536;45.488;12.238;2022-09-03T02:48:37;8.27;;;1.77;;
38787;SDS011;24536;45.488;12.238;2022-09-03T02:51:03;5.00;;;1.65;;
38787;SDS011;24536;45.488;12.238;2022-09-03T02:53:28;4.20;;;1.30;;
38787;SDS011;24536;45.488;12.238;2022-09-03T02:56:03;2.78;;;1.67;;
38787;SDS011;24536;45.488;12.238;2022-09-03T02:58:29;1.90;;;1.45;;
38787;SDS011;24536;45.488;12.238;2022-09-03T03:00:55;1.92;;;1.00;;
38787;SDS011;24536;45.488;12.238;2022-09-03T03:03:21;2.00;;;1.33;;
38787;SDS011;24536;45.488;12.238;2022-09-03T03:05:48;3.10;;;1.58;;
38787;SDS011;24536;45.488;12.238;2022-09-03T03:08:15;2.55;;;1.52;;
38787;SDS011;24536;45.488;12.238;2022-09-03T03:10:45;2.53;;;1.33;;
38787;SDS011;24536;45.488;12.238;2022-09-03T03:13:12;3.55;;;1.70;;
38787;SDS011;24536;45.488;12.238;2022-09-03T03:15:38;4.07;;;1.90;;
38787;SDS011;24536;45.488;12.238;2022-09-03T03:18:04;2.17;;;1.45;;
38787;SDS011;24536;45.488;12.238;2022-09-03T03:20:31;2.92;;;1.50;;
38787;SDS011;24536;45.488;12.238;2022-09-03T03:23:00;2.28;;;1.50;;
38787;SDS011;24536;45.488;12.238;2022-09-03T03:25:26;3.47;;;1.60;;
38787;SDS011;24536;45.488;12.238;2022-09-03T03:27:55;1.90;;;1.63;;
38787;SDS011;24536;45.488;12.238;2022-09-03T03:30:21;1.65;;;1.40;;
38787;SDS011;24536;45.488;12.238;2022-09-03T03:32:47;2.17;;;1.45;;
38787;SDS011;24536;45.488;12.238;2022-09-03T03:35:13;2.65;;;1.50;;
38787;SDS011;24536;45.488;12.238;2022-09-03T03:37:38;1.67;;;1.23;;
38787;SDS011;24536;45.488;12.238;2022-09-03T03:40:04;1.92;;;1.20;;
38787;SDS011;24536;45.488;12.238;2022-09-03T03:42:32;2.58;;;1.33;;
38787;SDS011;24536;45.488;12.238;2022-09-03T03:44:58;5.25;;;1.38;;
38787;SDS011;24536;45.488;12.238;2022-09-03T03:47:26;6.57;;;1.58;;
38787;SDS011;24536;45.488;12.238;2022-09-03T03:49:55;3.33;;;1.23;;
38787;SDS011;24536;45.488;12.238;2022-09-03T03:52:22;3.08;;;1.23;;
38787;SDS011;24536;45.488;12.238;2022-09-03T03:54:48;2.88;;;1.58;;
38787;SDS011;24536;45.488;12.238;2022-09-03T03:57:14;2.75;;;1.33;;
38787;SDS011;24536;45.488;12.238;2022-09-03T03:59:40;2.58;;;1.48;;
38787;SDS011;24536;45.488;12.238;2022-09-03T04:02:06;2.35;;;1.50;;
38787;SDS011;24536;45.488;12.238;2022-09-03T04:04:31;2.80;;;1.20;;
38787;SDS011;24536;45.488;12.238;2022-09-03T04:06:58;3.03;;;1.67;;
38787;SDS011;24536;45.488;12.238;2022-09-03T04:09:23;1.90;;;1.20;;
38787;SDS011;24536;45.488;12.238;2022-09-03T04:11:49;2.88;;;1.30;;
38787;SDS011;24536;45.488;12.238;2022-09-03T04:14:15;2.20;;;1.67;;
38787;SDS011;24536;45.488;12.238;2022-09-03T04:16:42;2.53;;;1.52;;
38787;SDS011;24536;45.488;12.238;2022-09-03T04:19:10;2.65;;;1.50;;
38787;SDS011;24536;45.488;12.238;2022-09-03T04:21:37;2.40;;;1.38;;
38787;SDS011;24536;45.488;12.238;2022-09-03T04:24:03;2.20;;;1.35;;
38787;SDS011;24536;45.488;12.238;2022-09-03T04:26:30;5.07;;;1.40;;
38787;SDS011;24536;45.488;12.238;2022-09-03T04:28:57;3.22;;;1.30;;
38787;SDS011;24536;45.488;12.238;2022-09-03T04:31:25;2.10;;;1.35;;
38787;SDS011;24536;45.488;12.238;2022-09-03T04:33:51;2.90;;;1.38;;
38787;SDS011;24536;45.488;12.238;2022-09-03T04:36:17;2.72;;;1.50;;
38787;SDS011;24536;45.488;12.238;2022-09-03T04:38:45;1.70;;;1.27;;
38787;SDS011;24536;45.488;12.238;2022-09-03T04:41:14;1.85;;;1.50;;
38787;SDS011;24536;45.488;12.238;2022-09-03T04:43:41;3.53;;;1.60;;
38787;SDS011;24536;45.488;12.238;2022-09-03T04:46:08;2.50;;;1.75;;
38787;SDS011;24536;45.488;12.238;2022-09-03T04:48:35;6.22;;;1.50;;
38787;SDS011;24536;45.488;12.238;2022-09-03T04:51:11;2.83;;;1.30;;
38787;SDS011;24536;45.488;12.238;2022-09-03T04:53:41;2.72;;;1.13;;
38787;SDS011;24536;45.488;12.238;2022-09-03T04:56:16;2.27;;;1.30;;
38787;SDS011;24536;45.488;12.238;2022-09-03T04:58:43;2.90;;;1.67;;
38787;SDS011;24536;45.488;12.238;2022-09-03T05:01:14;4.22;;;1.50;;
38787;SDS011;24536;45.488;12.238;2022-09-03T05:03:41;2.33;;;1.45;;
38787;SDS011;24536;45.488;12.238;2022-09-03T05:06:08;3.55;;;1.73;;
38787;SDS011;24536;45.488;12.238;2022-09-03T05:08:34;2.92;;;1.52;;
38787;SDS011;24536;45.488;12.238;2022-09-03T05:11:04;2.65;;;1.60;;
38787;SDS011;24536;45.488;12.238;2022-09-03T05:13:31;3.03;;;1.73;;
38787;SDS011;24536;45.488;12.238;2022-09-03T05:16:02;4.20;;;1.63;;
38787;SDS011;24536;45.488;12.238;2022-09-03T05:18:30;3.25;;;2.00;;
38787;SDS011;24536;45.488;12.238;2022-09-03T05:21:00;3.35;;;1.30;;
38787;SDS011;24536;45.488;12.238;2022-09-03T05:23:28;2.67;;;1.40;;
38787;SDS011;24536;45.488;12.238;2022-09-03T05:25:55;4.72;;;1.70;;
38787;SDS011;24536;45.488;12.238;2022-09-03T05:28:25;2.55;;;1.60;;
38787;SDS011;24536;45.488;12.238;2022-09-03T05:31:13;2.55;;;1.65;;
38787;SDS011;24536;45.488;12.238;2022-09-03T05:33:44;4.80;;;1.88;;
38787;SDS011;24536;45.488;12.238;2022-09-03T05:36:12;2.17;;;1.48;;
38787;SDS011;24536;45.488;12.238;2022-09-03T05:38:40;2.45;;;1.67;;
38787;SDS011;24536;45.488;12.238;2022-09-03T05:41:08;2.00;;;1.60;;
38787;SDS011;24536;45.488;12.238;2022-09-03T05:43:35;2.08;;;1.75;;
38787;SDS011;24536;45.488;12.238;2022-09-03T05:46:04;2.75;;;1.80;;
38787;SDS011;24536;45.488;12.238;2022-09-03T05:48:32;3.35;;;1.65;;
38787;SDS011;24536;45.488;12.238;2022-09-03T05:51:15;6.00;;;2.20;;
38787;SDS011;24536;45.488;12.238;2022-09-03T05:53:42;2.45;;;1.63;;
38787;SDS011;24536;45.488;12.238;2022-09-03T05:56:10;4.60;;;1.73;;
38787;SDS011;24536;45.488;12.238;2022-09-03T05:58:48;3.67;;;1.60;;
38787;SDS011;24536;45.488;12.238;2022-09-03T06:03:55;4.32;;;1.98;;
38787;SDS011;24536;45.488;12.238;2022-09-03T06:06:25;8.10;;;2.00;;
38787;SDS011;24536;45.488;12.238;2022-09-03T06:08:53;1.83;;;1.50;;
38787;SDS011;24536;45.488;12.238;2022-09-03T06:11:22;4.00;;;1.35;;
38787;SDS011;24536;45.488;12.238;2022-09-03T06:13:56;1.92;;;1.52;;
38787;SDS011;24536;45.488;12.238;2022-09-03T06:16:25;4.05;;;1.45;;
38787;SDS011;24536;45.488;12.238;2022-09-03T06:18:51;3.78;;;1.60;;
38787;SDS011;24536;45.488;12.238;2022-09-03T06:21:18;2.83;;;2.05;;
38787;SDS011;24536;45.488;12.238;2022-09-03T06:23:48;2.33;;;1.63;;
38787;SDS011;24536;45.488;12.238;2022-09-03T06:26:16;2.17;;;1.65;;
38787;SDS011;24536;45.488;12.238;2022-09-03T06:28:42;1.88;;;1.60;;
38787;SDS011;24536;45.488;12.238;2022-09-03T06:31:09;3.45;;;1.65;;
38787;SDS011;24536;45.488;12.238;2022-09-03T06:33:37;1.85;;;1.50;;
38787;SDS011;24536;45.488;12.238;2022-09-03T06:36:07;3.20;;;1.65;;
38787;SDS011;24536;45.488;12.238;2022-09-03T06:38:35;3.05;;;1.63;;
38787;SDS011;24536;45.488;12.238;2022-09-03T06:41:05;4.15;;;1.55;;
38787;SDS011;24536;45.488;12.238;2022-09-03T06:43:38;2.08;;;1.48;;
38787;SDS011;24536;45.488;12.238;2022-09-03T06:46:09;3.22;;;1.35;;
38787;SDS011;24536;45.488;12.238;2022-09-03T06:48:37;1.42;;;1.20;;
38787;SDS011;24536;45.488;12.238;2022-09-03T06:51:09;2.33;;;1.45;;
38787;SDS011;24536;45.488;12.238;2022-09-03T06:53:40;7.93;;;1.60;;
38787;SDS011;24536;45.488;12.238;2022-09-03T06:56:08;3.75;;;1.98;;
38787;SDS011;24536;45.488;12.238;2022-09-03T06:58:40;2.47;;;1.35;;
38787;SDS011;24536;45.488;12.238;2022-09-03T07:01:18;4.55;;;1.48;;
38787;SDS011;24536;45.488;12.238;2022-09-03T07:03:46;3.00;;;1.67;;
38787;SDS011;24536;45.488;12.238;2022-09-03T07:06:17;2.75;;;1.40;;
38787;SDS011;24536;45.488;12.238;2022-09-03T07:08:44;1.60;;;1.33;;
38787;SDS011;24536;45.488;12.238;2022-09-03T07:11:14;3.45;;;1.60;;
38787;SDS011;24536;45.488;12.238;2022-09-03T07:13:44;2.28;;;1.50;;
38787;SDS011;24536;45.488;12.238;2022-09-03T07:16:22;1.77;;;1.13;;
38787;SDS011;24536;45.488;12.238;2022-09-03T07:19:07;2.63;;;1.50;;
38787;SDS011;24536;45.488;12.238;2022-09-03T07:21:34;2.92;;;1.30;;
38787;SDS011;24536;45.488;12.238;2022-09-03T07:24:01;2.70;;;1.60;;
38787;SDS011;24536;45.488;12.238;2022-09-03T07:26:29;2.17;;;1.60;;
38787;SDS011;24536;45.488;12.238;2022-09-03T07:28:56;4.07;;;1.40;;
38787;SDS011;24536;45.488;12.238;2022-09-03T07:31:27;2.00;;;1.40;;
38787;SDS011;24536;45.488;12.238;2022-09-03T07:34:08;4.13;;;1.85;;
38787;SDS011;24536;45.488;12.238;2022-09-03T07:36:41;5.65;;;1.85;;
38787;SDS011;24536;45.488;12.238;2022-09-03T07:39:10;1.67;;;1.25;;
38787;SDS011;24536;45.488;12.238;2022-09-03T07:41:37;5.18;;;1.45;;
38787;SDS011;24536;45.488;12.238;2022-09-03T07:44:07;1.73;;;1.17;;
38787;SDS011;24536;45.488;12.238;2022-09-03T07:46:34;1.77;;;1.20;;
38787;SDS011;24536;45.488;12.238;2022-09-03T07:49:01;2.72;;;1.45;;
38787;SDS011;24536;45.488;12.238;2022-09-03T07:51:27;3.47;;;1.50;;
38787;SDS011;24536;45.488;12.238;2022-09-03T07:53:59;3.00;;;1.33;;
38787;SDS011;24536;45.488;12.238;2022-09-03T07:56:26;1.88;;;1.10;;
38787;SDS011;24536;45.488;12.238;2022-09-03T07:58:56;2.08;;;1.30;;
38787;SDS011;24536;45.488;12.238;2022-09-03T08:01:23;2.67;;;1.30;;
38787;SDS011;24536;45.488;12.238;2022-09-03T08:03:51;2.53;;;1.25;;
38787;SDS011;24536;45.488;12.238;2022-09-03T08:06:18;3.15;;;1.15;;
38787;SDS011;24536;45.488;12.238;2022-09-03T08:08:46;2.35;;;1.17;;
38787;SDS011;24536;45.488;12.238;2022-09-03T08:11:13;3.15;;;1.02;;
38787;SDS011;24536;45.488;12.238;2022-09-03T08:13:42;2.92;;;1.05;;
38787;SDS011;24536;45.488;12.238;2022-09-03T08:16:13;1.45;;;1.05;;
38787;SDS011;24536;45.488;12.238;2022-09-03T08:18:40;2.53;;;1.15;;
38787;SDS011;24536;45.488;12.238;2022-09-03T08:21:09;2.05;;;1.05;;
38787;SDS011;24536;45.488;12.238;2022-09-03T08:23:41;1.73;;;0.95;;
38787;SDS011;24536;45.488;12.238;2022-09-03T08:26:08;4.35;;;1.20;;
38787;SDS011;24536;45.488;12.238;2022-09-03T08:28:36;2.13;;;1.20;;
38787;SDS011;24536;45.488;12.238;2022-09-03T08:33:34;2.03;;;1.25;;
38787;SDS011;24536;45.488;12.238;2022-09-03T08:36:06;1.50;;;1.10;;
38787;SDS011;24536;45.488;12.238;2022-09-03T08:38:34;1.10;;;0.88;;
38787;SDS011;24536;45.488;12.238;2022-09-03T08:46:48;1.17;;;0.90;;
38787;SDS011;24536;45.488;12.238;2022-09-03T08:49:34;2.65;;;1.10;;
38787;SDS011;24536;45.488;12.238;2022-09-03T08:54:48;2.28;;;1.10;;
38787;SDS011;24536;45.488;12.238;2022-09-03T08:57:15;1.92;;;1.20;;
38787;SDS011;24536;45.488;12.238;2022-09-03T08:59:44;1.83;;;1.00;;
38787;SDS011;24536;45.488;12.238;2022-09-03T09:05:08;1.10;;;0.90;;
38787;SDS011;24536;45.488;12.238;2022-09-03T09:13:08;1.85;;;1.10;;
38787;SDS011;24536;45.488;12.238;2022-09-03T09:21:30;1.45;;;1.10;;
38787;SDS011;24536;45.488;12.238;2022-09-03T09:24:04;2.88;;;1.45;;
38787;SDS011;24536;45.488;12.238;2022-09-03T09:26:35;2.92;;;1.05;;
38787;SDS011;24536;45.488;12.238;2022-09-03T09:29:06;1.70;;;1.30;;
38787;SDS011;24536;45.488;12.238;2022-09-03T09:31:37;1.50;;;1.00;;
38787;SDS011;24536;45.488;12.238;2022-09-03T09:34:04;2.20;;;1.20;;
38787;SDS011;24536;45.488;12.238;2022-09-03T09:36:35;1.55;;;1.00;;
38787;SDS011;24536;45.488;12.238;2022-09-03T09:39:31;1.80;;;1.10;;
38787;SDS011;24536;45.488;12.238;2022-09-03T09:41:57;1.90;;;1.10;;
38787;SDS011;24536;45.488;12.238;2022-09-03T09:44:26;2.00;;;1.02;;
38787;SDS011;24536;45.488;12.238;2022-09-03T09:47:00;1.15;;;0.82;;
38787;SDS011;24536;45.488;12.238;2022-09-03T09:49:34;2.42;;;1.00;;
38787;SDS011;24536;45.488;12.238;2022-09-03T09:54:33;1.67;;;0.93;;
38787;SDS011;24536;45.488;12.238;2022-09-03T09:57:00;1.38;;;0.85;;
38787;SDS011;24536;45.488;12.238;2022-09-03T09:59:31;1.63;;;1.15;;
38787;SDS011;24536;45.488;12.238;2022-09-03T10:02:09;1.52;;;1.02;;
38787;SDS011;24536;45.488;12.238;2022-09-03T10:04:44;1.20;;;1.10;;
38787;SDS011;24536;45.488;12.238;2022-09-03T10:07:27;3.83;;;1.58;;
38787;SDS011;24536;45.488;12.238;2022-09-03T10:10:31;2.25;;;1.30;;
38787;SDS011;24536;45.488;12.238;2022-09-03T10:18:59;3.42;;;1.30;;
38787;SDS011;24536;45.488;12.238;2022-09-03T10:23:58;1.50;;;0.95;;
38787;SDS011;24536;45.488;12.238;2022-09-03T10:26:31;1.55;;;1.00;;
38787;SDS011;24536;45.488;12.238;2022-09-03T10:29:00;2.15;;;1.23;;
38787;SDS011;24536;45.488;12.238;2022-09-03T10:36:38;1.48;;;0.98;;
38787;SDS011;24536;45.488;12.238;2022-09-03T10:39:21;2.65;;;1.05;;
38787;SDS011;24536;45.488;12.238;2022-09-03T10:48:10;3.03;;;1.27;;
38787;SDS011;24536;45.488;12.238;2022-09-03T10:53:44;1.55;;;1.05;;
38787;SDS011;24536;45.488;12.238;2022-09-03T10:56:16;1.83;;;1.00;;
38787;SDS011;24536;45.488;12.238;2022-09-03T11:07:13;1.33;;;0.90;;
38787;SDS011;24536;45.488;12.238;2022-09-03T11:12:30;2.15;;;1.17;;
38787;SDS011;24536;45.488;12.238;2022-09-03T11:15:05;4.03;;;0.90;;
38787;SDS011;24536;45.488;12.238;2022-09-03T11:17:40;1.83;;;0.88;;
38787;SDS011;24536;45.488;12.238;2022-09-03T11:22:48;2.50;;;1.10;;
38787;SDS011;24536;45.488;12.238;2022-09-03T11:25:21;1.45;;;0.90;;
38787;SDS011;24536;45.488;12.238;2022-09-03T11:27:55;4.88;;;1.08;;
38787;SDS011;24536;45.488;12.238;2022-09-03T11:33:25;1.13;;;0.80;;
38787;SDS011;24536;45.488;12.238;2022-09-03T11:35:56;1.05;;;0.73;;
38787;SDS011;24536;45.488;12.238;2022-09-03T11:38:27;1.50;;;0.90;;
38787;SDS011;24536;45.488;12.238;2022-09-03T11:41:00;1.23;;;1.00;;
38787;SDS011;24536;45.488;12.238;2022-09-03T11:43:38;1.80;;;0.90;;
38787;SDS011;24536;45.488;12.238;2022-09-03T11:48:49;1.50;;;0.70;;
38787;SDS011;24536;45.488;12.238;2022-09-03T11:51:30;0.77;;;0.75;;
38787;SDS011;24536;45.488;12.238;2022-09-03T11:56:29;3.50;;;1.02;;
38787;SDS011;24536;45.488;12.238;2022-09-03T12:01:29;2.53;;;1.05;;
38787;SDS011;24536;45.488;12.238;2022-09-03T12:03:58;3.80;;;1.00;;
38787;SDS011;24536;45.488;12.238;2022-09-03T12:20:35;4.18;;;1.25;;
38787;SDS011;24536;45.488;12.238;2022-09-03T12:23:00;2.72;;;0.80;;
38787;SDS011;24536;45.488;12.238;2022-09-03T12:25:27;1.42;;;1.05;;
38787;SDS011;24536;45.488;12.238;2022-09-03T12:27:53;2.65;;;1.02;;
38787;SDS011;24536;45.488;12.238;2022-09-03T12:30:22;2.10;;;0.90;;
38787;SDS011;24536;45.488;12.238;2022-09-03T12:32:49;3.22;;;1.98;;
38787;SDS011;24536;45.488;12.238;2022-09-03T12:35:20;2.92;;;1.60;;
38787;SDS011;24536;45.488;12.238;2022-09-03T12:37:47;4.28;;;1.17;;
38787;SDS011;24536;45.488;12.238;2022-09-03T12:40:26;2.90;;;1.10;;
38787;SDS011;24536;45.488;12.238;2022-09-03T12:42:54;1.35;;;0.95;;
38787;SDS011;24536;45.488;12.238;2022-09-03T12:45:40;3.20;;;1.05;;
38787;SDS011;24536;45.488;12.238;2022-09-03T12:48:11;2.50;;;1.20;;
38787;SDS011;24536;45.488;12.238;2022-09-03T12:50:41;2.42;;;1.10;;
38787;SDS011;24536;45.488;12.238;2022-09-03T12:53:08;3.40;;;1.10;;
38787;SDS011;24536;45.488;12.238;2022-09-03T12:55:54;1.30;;;1.17;;
38787;SDS011;24536;45.488;12.238;2022-09-03T12:58:24;1.90;;;1.02;;
38787;SDS011;24536;45.488;12.238;2022-09-03T13:01:13;1.02;;;0.90;;
38787;SDS011;24536;45.488;12.238;2022-09-03T13:03:47;2.13;;;1.05;;
38787;SDS011;24536;45.488;12.238;2022-09-03T13:06:26;0.75;;;0.68;;
38787;SDS011;24536;45.488;12.238;2022-09-03T13:09:00;2.78;;;0.85;;
38787;SDS011;24536;45.488;12.238;2022-09-03T13:11:31;2.17;;;0.98;;
38787;SDS011;24536;45.488;12.238;2022-09-03T13:14:11;4.18;;;0.95;;
38787;SDS011;24536;45.488;12.238;2022-09-03T13:25:02;1.63;;;0.80;;
38787;SDS011;24536;45.488;12.238;2022-09-03T13:30:53;1.80;;;0.90;;
38787;SDS011;24536;45.488;12.238;2022-09-03T13:33:31;1.13;;;0.85;;
38787;SDS011;24536;45.488;12.238;2022-09-03T13:36:09;0.60;;;0.60;;
38787;SDS011;24536;45.488;12.238;2022-09-03T13:38:59;0.80;;;0.80;;
38787;SDS011;24536;45.488;12.238;2022-09-03T13:46:47;1.08;;;0.93;;
38787;SDS011;24536;45.488;12.238;2022-09-03T13:55:12;2.17;;;0.82;;
38787;SDS011;24536;45.488;12.238;2022-09-03T14:09:08;0.80;;;0.68;;
38787;SDS011;24536;45.488;12.238;2022-09-03T14:12:04;1.60;;;0.75;;
38787;SDS011;24536;45.488;12.238;2022-09-03T14:20:43;5.45;;;1.17;;
38787;SDS011;24536;45.488;12.238;2022-09-03T14:29:19;1.98;;;0.88;;
38787;SDS011;24536;45.488;12.238;2022-09-03T14:39:58;1.58;;;1.00;;
38787;SDS011;24536;45.488;12.238;2022-09-03T14:50:33;1.20;;;0.90;;
38787;SDS011;24536;45.488;12.238;2022-09-03T14:53:17;2.08;;;0.90;;
38787;SDS011;24536;45.488;12.238;2022-09-03T14:56:21;1.60;;;1.05;;
38787;SDS011;24536;45.488;12.238;2022-09-03T14:59:23;1.70;;;0.90;;
38787;SDS011;24536;45.488;12.238;2022-09-03T15:03:00;2.22;;;1.15;;
38787;SDS011;24536;45.488;12.238;2022-09-03T15:11:15;1.25;;;0.90;;
38787;SDS011;24536;45.488;12.238;2022-09-03T15:13:34;1.98;;;1.10;;
38787;SDS011;24536;45.488;12.238;2022-09-03T15:16:16;2.17;;;1.10;;
38787;SDS011;24536;45.488;12.238;2022-09-03T15:24:52;1.77;;;0.90;;
38787;SDS011;24536;45.488;12.238;2022-09-03T15:30:31;1.45;;;1.02;;
38787;SDS011;24536;45.488;12.238;2022-09-03T15:33:16;1.73;;;0.80;;
38787;SDS011;24536;45.488;12.238;2022-09-03T15:36:14;3.33;;;0.73;;
38787;SDS011;24536;45.488;12.238;2022-09-03T15:38:48;1.20;;;0.82;;
38787;SDS011;24536;45.488;12.238;2022-09-03T15:44:24;0.80;;;0.80;;
38787;SDS011;24536;45.488;12.238;2022-09-03T15:52:36;1.65;;;1.00;;
38787;SDS011;24536;45.488;12.238;2022-09-03T16:00:49;3.45;;;0.98;;
38787;SDS011;24536;45.488;12.238;2022-09-03T16:06:36;3.65;;;0.95;;
38787;SDS011;24536;45.488;12.238;2022-09-03T16:09:35;1.35;;;1.15;;
38787;SDS011;24536;45.488;12.238;2022-09-03T16:14:34;1.40;;;0.88;;
38787;SDS011;24536;45.488;12.238;2022-09-03T16:17:26;1.33;;;0.90;;
38787;SDS011;24536;45.488;12.238;2022-09-03T16:22:43;2.15;;;0.90;;
38787;SDS011;24536;45.488;12.238;2022-09-03T16:25:28;1.23;;;1.13;;
38787;SDS011;24536;45.488;12.238;2022-09-03T16:28:17;1.13;;;0.83;;
38787;SDS011;24536;45.488;12.238;2022-09-03T16:41:59;1.75;;;1.00;;
38787;SDS011;24536;45.488;12.238;2022-09-03T16:47:36;1.42;;;0.68;;
38787;SDS011;24536;45.488;12.238;2022-09-03T16:50:18;1.80;;;1.27;;
38787;SDS011;24536;45.488;12.238;2022-09-03T17:10:02;3.05;;;1.10;;
38787;SDS011;24536;45.488;12.238;2022-09-03T17:18:18;1.20;;;1.00;;
38787;SDS011;24536;45.488;12.238;2022-09-03T17:23:39;1.83;;;0.90;;
38787;SDS011;24536;45.488;12.238;2022-09-03T17:26:32;2.55;;;0.95;;
38787;SDS011;24536;45.488;12.238;2022-09-03T17:29:16;1.00;;;0.90;;
38787;SDS011;24536;45.488;12.238;2022-09-03T17:32:02;1.02;;;0.90;;
38787;SDS011;24536;45.488;12.238;2022-09-03T17:45:08;1.90;;;1.00;;
38787;SDS011;24536;45.488;12.238;2022-09-03T17:51:02;2.17;;;0.85;;
38787;SDS011;24536;45.488;12.238;2022-09-03T17:53:36;1.67;;;0.90;;
38787;SDS011;24536;45.488;12.238;2022-09-03T17:56:32;1.10;;;0.88;;
38787;SDS011;24536;45.488;12.238;2022-09-03T18:02:02;1.25;;;0.93;;
38787;SDS011;24536;45.488;12.238;2022-09-03T18:04:47;1.33;;;0.98;;
38787;SDS011;24536;45.488;12.238;2022-09-03T18:07:48;0.90;;;0.77;;
38787;SDS011;24536;45.488;12.238;2022-09-03T18:10:18;3.28;;;1.20;;
38787;SDS011;24536;45.488;12.238;2022-09-03T18:16:02;1.48;;;0.60;;
38787;SDS011;24536;45.488;12.238;2022-09-03T18:18:51;1.30;;;0.80;;
38787;SDS011;24536;45.488;12.238;2022-09-03T18:21:24;1.30;;;0.85;;
38787;SDS011;24536;45.488;12.238;2022-09-03T18:27:11;1.65;;;1.02;;
38787;SDS011;24536;45.488;12.238;2022-09-03T18:30:18;3.03;;;0.73;;
38787;SDS011;24536;45.488;12.238;2022-09-03T18:33:03;2.42;;;0.70;;
38787;SDS011;24536;45.488;12.238;2022-09-03T18:35:47;1.10;;;0.90;;
38787;SDS011;24536;45.488;12.238;2022-09-03T18:38:32;3.78;;;1.05;;
38787;SDS011;24536;45.488;12.238;2022-09-03T18:50:25;2.35;;;1.10;;
38787;SDS011;24536;45.488;12.238;2022-09-03T18:53:33;1.90;;;0.85;;
38787;SDS011;24536;45.488;12.238;2022-09-03T18:56:46;3.45;;;1.30;;
38787;SDS011;24536;45.488;12.238;2022-09-03T19:14:58;2.08;;;1.10;;
38787;SDS011;24536;45.488;12.238;2022-09-03T19:21:08;4.63;;;1.42;;
38787;SDS011;24536;45.488;12.238;2022-09-03T19:23:59;4.50;;;2.03;;
38787;SDS011;24536;45.488;12.238;2022-09-03T19:26:50;3.88;;;1.85;;
38787;SDS011;24536;45.488;12.238;2022-09-03T19:42:11;4.70;;;1.52;;
38787;SDS011;24536;45.488;12.238;2022-09-03T19:54:40;3.40;;;1.88;;
38787;SDS011;24536;45.488;12.238;2022-09-03T19:57:25;4.28;;;2.17;;
38787;SDS011;24536;45.488;12.238;2022-09-03T20:00:12;4.47;;;1.65;;
38787;SDS011;24536;45.488;12.238;2022-09-03T20:02:56;2.92;;;1.45;;
38787;SDS011;24536;45.488;12.238;2022-09-03T20:05:42;3.63;;;1.63;;
38787;SDS011;24536;45.488;12.238;2022-09-03T20:08:27;4.45;;;1.38;;
38787;SDS011;24536;45.488;12.238;2022-09-03T20:11:17;3.15;;;1.50;;
38787;SDS011;24536;45.488;12.238;2022-09-03T20:13:45;3.03;;;1.70;;
38787;SDS011;24536;45.488;12.238;2022-09-03T20:22:44;3.60;;;2.40;;
38787;SDS011;24536;45.488;12.238;2022-09-03T20:28:34;5.00;;;2.35;;
38787;SDS011;24536;45.488;12.238;2022-09-03T20:47:43;2.95;;;2.35;;
38787;SDS011;24536;45.488;12.238;2022-09-03T21:01:41;4.32;;;2.28;;
38787;SDS011;24536;45.488;12.238;2022-09-03T21:07:19;4.32;;;2.25;;
38787;SDS011;24536;45.488;12.238;2022-09-03T21:09:58;5.90;;;2.65;;
38787;SDS011;24536;45.488;12.238;2022-09-03T21:18:28;2.03;;;1.63;;
38787;SDS011;24536;45.488;12.238;2022-09-03T21:23:50;3.70;;;2.10;;
38787;SDS011;24536;45.488;12.238;2022-09-03T21:26:30;3.80;;;1.85;;
38787;SDS011;24536;45.488;12.238;2022-09-03T21:29:08;3.17;;;2.17;;
38787;SDS011;24536;45.488;12.238;2022-09-03T21:32:43;3.45;;;2.65;;
38787;SDS011;24536;45.488;12.238;2022-09-03T21:37:40;3.25;;;2.08;;
38787;SDS011;24536;45.488;12.238;2022-09-03T21:40:14;4.72;;;2.15;;
38787;SDS011;24536;45.488;12.238;2022-09-03T21:42:48;3.33;;;1.97;;
38787;SDS011;24536;45.488;12.238;2022-09-03T21:45:41;5.15;;;2.25;;
38787;SDS011;24536;45.488;12.238;2022-09-03T21:51:00;2.25;;;1.90;;
38787;SDS011;24536;45.488;12.238;2022-09-03T21:53:38;1.90;;;1.70;;
38787;SDS011;24536;45.488;12.238;2022-09-03T21:59:53;3.28;;;1.60;;
38787;SDS011;24536;45.488;12.238;2022-09-03T22:02:11;2.08;;;1.67;;
38787;SDS011;24536;45.488;12.238;2022-09-03T22:04:48;2.63;;;1.33;;
38787;SDS011;24536;45.488;12.238;2022-09-03T22:10:38;2.10;;;1.67;;
38787;SDS011;24536;45.488;12.238;2022-09-03T22:15:49;1.55;;;1.42;;
38787;SDS011;24536;45.488;12.238;2022-09-03T22:18:27;4.65;;;1.75;;
38787;SDS011;24536;45.488;12.238;2022-09-03T22:40:08;3.65;;;2.35;;
38787;SDS011;24536;45.488;12.238;2022-09-03T22:45:31;2.97;;;2.55;;
38787;SDS011;24536;45.488;12.238;2022-09-03T22:50:58;2.38;;;1.85;;
38787;SDS011;24536;45.488;12.238;2022-09-03T22:56:06;3.17;;;2.25;;